Time;durP1;ratioP1;P1;durP2;ratioP2;P2;SDS_P1;SDS_P2;PMS_P1;PMS_P2;Temp;Humidity;BMP_temperature;BMP_pressure;BME280_temperature;BME280_humidity;BME280_pressure;Samples;Min_cycle;Max_cycle;Signal;HPM_P1;HPM_P2
2021/03/31 00:00:17;;;;;;;2.53;1.30;;;23.40;26.10;;;;;;4970314;28;20599;-56
2021/03/31 00:02:43;;;;;;;1.77;1.40;;;23.40;26.00;;;;;;4970083;28;20232;-50
2021/03/31 00:05:09;;;;;;;1.60;1.13;;;23.40;26.20;;;;;;4970964;28;20282;-56
2021/03/31 00:07:35;;;;;;;1.77;1.20;;;23.40;26.00;;;;;;4970078;28;20211;-58
2021/03/31 00:10:01;;;;;;;1.93;1.27;;;23.40;26.00;;;;;;4970114;28;20463;-48
2021/03/31 00:12:27;;;;;;;2.53;1.50;;;23.40;25.90;;;;;;4969346;28;20638;-54
2021/03/31 00:14:53;;;;;;;2.87;1.37;;;23.40;25.90;;;;;;4957829;28;20205;-55
2021/03/31 00:17:19;;;;;;;1.48;1.38;;;23.40;25.90;;;;;;4968803;28;20208;-58
2021/03/31 00:19:45;;;;;;;1.50;1.40;;;23.40;25.90;;;;;;4972400;28;20223;-54
2021/03/31 00:22:11;;;;;;;1.73;1.20;;;23.40;25.90;;;;;;4973143;28;20228;-58
2021/03/31 00:24:37;;;;;;;2.17;1.70;;;23.40;25.90;;;;;;4969336;28;20562;-51
2021/03/31 00:27:03;;;;;;;2.00;1.50;;;23.40;25.90;;;;;;4961443;28;20215;-51
2021/03/31 00:29:29;;;;;;;1.33;1.20;;;23.40;25.90;;;;;;4973466;28;20224;-53
2021/03/31 00:31:55;;;;;;;1.87;1.60;;;23.40;25.90;;;;;;4973398;28;20267;-49
2021/03/31 00:34:21;;;;;;;2.50;1.40;;;23.30;25.80;;;;;;4972832;28;20207;-52
2021/03/31 00:36:47;;;;;;;1.85;1.50;;;23.40;25.90;;;;;;4974208;28;20207;-50
2021/03/31 00:39:13;;;;;;;2.07;1.50;;;23.40;25.90;;;;;;4974101;28;20234;-53
2021/03/31 00:41:39;;;;;;;2.77;1.47;;;23.40;25.90;;;;;;4974018;28;20231;-48
2021/03/31 00:44:05;;;;;;;2.13;1.50;;;23.40;26.00;;;;;;4973766;28;20668;-53
2021/03/31 00:46:31;;;;;;;1.70;1.33;;;23.40;26.00;;;;;;4967617;28;20200;-53
2021/03/31 00:48:57;;;;;;;3.53;1.40;;;23.40;26.00;;;;;;4973229;28;20227;-58
2021/03/31 00:51:23;;;;;;;2.13;1.57;;;23.40;26.00;;;;;;4973265;28;20212;-56
2021/03/31 00:53:49;;;;;;;1.63;1.37;;;23.40;26.00;;;;;;4971411;28;20286;-53
2021/03/31 00:56:15;;;;;;;1.43;1.30;;;23.40;26.00;;;;;;4971722;28;20609;-55
2021/03/31 00:58:41;;;;;;;1.30;1.17;;;23.40;26.10;;;;;;4974148;28;20207;-56
2021/03/31 01:01:07;;;;;;;2.30;1.37;;;23.40;26.00;;;;;;4972455;28;20228;-57
2021/03/31 01:03:33;;;;;;;2.08;1.25;;;23.40;26.00;;;;;;4973235;28;20246;-54
2021/03/31 01:05:59;;;;;;;1.57;1.30;;;23.40;26.00;;;;;;4974035;28;20196;-58
2021/03/31 01:08:25;;;;;;;1.63;1.27;;;23.40;26.10;;;;;;4972681;28;20610;-55
2021/03/31 01:10:51;;;;;;;1.43;1.30;;;23.40;26.00;;;;;;4973132;28;20228;-51
2021/03/31 01:13:17;;;;;;;2.27;1.40;;;23.40;26.00;;;;;;4971920;28;20238;-54
2021/03/31 01:15:43;;;;;;;1.63;1.40;;;23.30;26.00;;;;;;4972693;28;20267;-51
2021/03/31 01:18:09;;;;;;;2.40;1.47;;;23.30;26.00;;;;;;4973753;28;20605;-54
2021/03/31 01:20:35;;;;;;;1.13;1.03;;;23.40;26.10;;;;;;4972742;28;20224;-53
2021/03/31 01:23:01;;;;;;;1.30;1.20;;;23.30;26.00;;;;;;4972967;28;20251;-52
2021/03/31 01:25:27;;;;;;;1.60;1.40;;;23.30;26.00;;;;;;4972993;28;20216;-57
2021/03/31 01:27:53;;;;;;;2.13;1.37;;;23.30;25.90;;;;;;4972652;28;20204;-52
2021/03/31 01:30:19;;;;;;;3.17;1.40;;;23.30;26.00;;;;;;4972583;28;20709;-53
2021/03/31 01:32:45;;;;;;;1.63;1.23;;;23.30;25.90;;;;;;4973633;28;20204;-55
2021/03/31 01:35:11;;;;;;;1.80;1.50;;;23.30;26.00;;;;;;4972635;28;20207;-59
2021/03/31 01:37:37;;;;;;;1.85;1.35;;;23.30;25.90;;;;;;4973101;28;20211;-59
2021/03/31 01:40:03;;;;;;;1.50;1.40;;;23.30;25.90;;;;;;4972487;28;20239;-55
2021/03/31 01:42:29;;;;;;;2.03;1.33;;;23.30;26.00;;;;;;4971744;28;20584;-57
2021/03/31 01:44:55;;;;;;;1.42;1.27;;;23.40;26.10;;;;;;4969958;28;20201;-56
2021/03/31 01:47:21;;;;;;;2.17;1.33;;;23.30;26.00;;;;;;4972208;28;20204;-55
2021/03/31 01:49:47;;;;;;;1.30;1.20;;;23.30;26.00;;;;;;4963317;28;20225;-56
2021/03/31 01:52:13;;;;;;;1.43;1.20;;;23.30;26.00;;;;;;4956212;28;20279;-55
2021/03/31 01:54:39;;;;;;;3.20;1.47;;;23.30;26.00;;;;;;4969888;28;20211;-55
2021/03/31 01:57:05;;;;;;;1.50;1.40;;;23.30;25.90;;;;;;4970790;28;20212;-55
2021/03/31 01:59:31;;;;;;;1.80;1.45;;;23.30;26.10;;;;;;4956074;28;20225;-55
2021/03/31 02:01:57;;;;;;;1.63;1.53;;;23.30;26.10;;;;;;4972248;28;20231;-55
2021/03/31 02:04:23;;;;;;;1.83;1.30;;;23.30;26.20;;;;;;4971773;28;20558;-45
2021/03/31 02:06:49;;;;;;;1.57;1.30;;;23.40;26.20;;;;;;4971617;28;20200;-45
2021/03/31 02:09:16;;;;;;;2.47;1.40;;;23.40;26.20;;;;;;4971875;28;20212;-46
2021/03/31 02:11:42;;;;;;;1.70;1.58;;;23.40;26.30;;;;;;4972856;28;20204;-49
2021/03/31 02:14:08;;;;;;;2.08;1.63;;;23.40;26.20;;;;;;4970538;28;20230;-44
2021/03/31 02:16:34;;;;;;;2.63;1.50;;;23.30;26.20;;;;;;4971255;28;20211;-49
2021/03/31 02:19:00;;;;;;;1.57;1.37;;;23.30;26.20;;;;;;4971901;28;20227;-50
2021/03/31 02:21:26;;;;;;;1.98;1.60;;;23.30;26.10;;;;;;4972614;28;20680;-47
2021/03/31 02:23:52;;;;;;;2.17;1.53;;;23.30;26.20;;;;;;4969145;28;20262;-45
2021/03/31 02:26:18;;;;;;;2.43;1.53;;;23.30;26.10;;;;;;4961067;28;20271;-47
2021/03/31 02:28:44;;;;;;;2.05;1.40;;;23.30;26.10;;;;;;4963500;28;20704;-44
2021/03/31 02:31:10;;;;;;;1.77;1.53;;;23.30;26.20;;;;;;4971514;28;20208;-51
2021/03/31 02:33:36;;;;;;;1.50;1.40;;;23.30;26.10;;;;;;4971678;28;20201;-50
2021/03/31 02:36:02;;;;;;;1.77;1.30;;;23.30;26.10;;;;;;4970575;28;20208;-51
2021/03/31 02:38:28;;;;;;;2.17;1.50;;;23.30;26.20;;;;;;4981120;28;20224;-46
2021/03/31 02:40:54;;;;;;;1.93;1.30;;;23.30;26.20;;;;;;4971349;28;20219;-48
2021/03/31 02:43:20;;;;;;;3.13;1.63;;;23.40;26.10;;;;;;4971065;28;20209;-45
2021/03/31 02:45:46;;;;;;;1.37;1.20;;;23.30;26.10;;;;;;4971188;28;20613;-45
2021/03/31 02:48:12;;;;;;;1.63;1.37;;;23.30;26.10;;;;;;4962114;28;20207;-44
2021/03/31 02:50:38;;;;;;;1.30;1.20;;;23.30;26.10;;;;;;4972427;28;20204;-49
2021/03/31 02:53:04;;;;;;;3.23;1.40;;;23.30;26.00;;;;;;4971546;28;20255;-54
2021/03/31 02:55:30;;;;;;;1.73;1.43;;;23.30;26.10;;;;;;4968709;28;20211;-50
2021/03/31 02:57:56;;;;;;;1.80;1.40;;;23.30;26.20;;;;;;4970630;28;20222;-56
2021/03/31 03:00:22;;;;;;;2.83;1.53;;;23.30;26.10;;;;;;4971477;28;20228;-55
2021/03/31 03:02:48;;;;;;;1.40;1.30;;;23.30;26.10;;;;;;4971907;28;20271;-47
2021/03/31 03:05:14;;;;;;;1.85;1.30;;;23.30;26.10;;;;;;4971435;28;20200;-54
2021/03/31 03:07:40;;;;;;;1.50;1.40;;;23.30;26.00;;;;;;4971869;28;20665;-50
2021/03/31 03:10:06;;;;;;;2.23;1.40;;;23.30;26.10;;;;;;4971140;28;20238;-55
2021/03/31 03:12:32;;;;;;;1.70;1.40;;;23.30;26.20;;;;;;4971355;28;20555;-52
2021/03/31 03:14:58;;;;;;;1.30;1.20;;;23.30;26.60;;;;;;4969885;28;20209;-50
2021/03/31 03:17:24;;;;;;;1.70;1.40;;;23.30;26.10;;;;;;4971487;28;20238;-54
2021/03/31 03:19:50;;;;;;;1.50;1.17;;;23.30;26.10;;;;;;4970805;28;20231;-55
2021/03/31 03:22:16;;;;;;;1.50;1.40;;;23.30;26.00;;;;;;4972053;28;20223;-50
2021/03/31 03:24:42;;;;;;;2.27;1.50;;;23.30;26.10;;;;;;4970974;28;20545;-58
2021/03/31 03:27:08;;;;;;;1.42;1.33;;;23.30;26.10;;;;;;4969583;28;20251;-48
2021/03/31 03:29:34;;;;;;;3.27;1.50;;;23.30;26.20;;;;;;4969650;28;20279;-55
2021/03/31 03:32:00;;;;;;;1.73;1.30;;;23.30;26.10;;;;;;4963875;28;20204;-49
2021/03/31 03:34:26;;;;;;;1.70;1.60;;;23.30;26.10;;;;;;4969731;28;20203;-52
2021/03/31 03:36:52;;;;;;;2.30;1.40;;;23.30;26.30;;;;;;4970733;28;20197;-59
2021/03/31 03:39:17;;;;;;;2.73;1.50;;;23.40;26.40;;;;;;4970446;28;20227;-58
2021/03/31 03:41:43;;;;;;;3.42;1.80;;;23.40;26.60;;;;;;4970441;28;20364;-55
2021/03/31 03:44:09;;;;;;;3.03;1.57;;;23.40;26.60;;;;;;4971105;28;20204;-52
2021/03/31 03:46:35;;;;;;;2.40;1.35;;;23.30;26.30;;;;;;4970479;28;20215;-52
2021/03/31 03:49:02;;;;;;;1.77;1.37;;;23.30;26.30;;;;;;4970559;28;20220;-54
2021/03/31 03:51:27;;;;;;;4.23;1.47;;;23.30;26.20;;;;;;4974886;28;20208;-52
2021/03/31 03:53:53;;;;;;;3.53;1.40;;;23.30;26.20;;;;;;4973518;28;20637;-51
2021/03/31 03:56:19;;;;;;;3.20;1.37;;;23.30;26.20;;;;;;4973571;28;20240;-46
2021/03/31 03:58:45;;;;;;;3.57;1.73;;;23.40;26.40;;;;;;4975155;28;20582;-48
2021/03/31 04:01:11;;;;;;;1.83;1.37;;;23.30;26.20;;;;;;4974114;28;20203;-49
2021/03/31 04:03:37;;;;;;;3.40;1.60;;;23.30;26.20;;;;;;4972774;28;20196;-53
2021/03/31 04:06:03;;;;;;;1.80;1.40;;;23.30;26.30;;;;;;4971303;28;20208;-48
2021/03/31 04:08:29;;;;;;;2.77;1.50;;;23.30;26.30;;;;;;4974040;28;20297;-49
2021/03/31 04:10:55;;;;;;;2.88;1.75;;;23.30;26.40;;;;;;4973177;28;20216;-51
2021/03/31 04:13:21;;;;;;;4.90;1.50;;;23.30;26.30;;;;;;4972314;28;20205;-53
2021/03/31 04:15:47;;;;;;;1.75;1.38;;;23.40;26.40;;;;;;4973745;28;20224;-49
2021/03/31 04:18:13;;;;;;;1.60;1.50;;;23.30;26.30;;;;;;4972671;28;20216;-45
2021/03/31 04:20:39;;;;;;;3.13;1.67;;;23.30;26.50;;;;;;4959883;28;20615;-48
2021/03/31 04:23:05;;;;;;;2.72;1.60;;;23.40;26.90;;;;;;4974403;28;20232;-51
2021/03/31 04:25:31;;;;;;;2.40;1.47;;;23.40;26.70;;;;;;4972562;28;20219;-51
2021/03/31 04:27:57;;;;;;;1.60;1.40;;;23.40;26.80;;;;;;4973200;28;20227;-48
2021/03/31 04:30:23;;;;;;;1.43;1.30;;;23.30;26.60;;;;;;4974937;28;20220;-50
2021/03/31 04:32:49;;;;;;;1.97;1.37;;;23.30;26.50;;;;;;4973452;28;20798;-51
2021/03/31 04:35:15;;;;;;;2.73;1.53;;;23.30;26.50;;;;;;4974479;28;20356;-48
2021/03/31 04:37:41;;;;;;;1.73;1.63;;;23.30;26.60;;;;;;4973150;28;20262;-50
2021/03/31 04:40:07;;;;;;;1.53;1.40;;;23.30;26.50;;;;;;4974520;28;20207;-47
2021/03/31 04:42:33;;;;;;;2.30;1.50;;;23.30;26.60;;;;;;4973533;28;20231;-53
2021/03/31 04:44:59;;;;;;;1.40;1.10;;;23.30;26.60;;;;;;4974663;28;20197;-52
2021/03/31 04:47:25;;;;;;;2.07;1.70;;;23.30;26.60;;;;;;4969699;28;20224;-46
2021/03/31 04:49:51;;;;;;;1.80;1.60;;;23.30;26.50;;;;;;4957324;28;20695;-48
2021/03/31 04:52:17;;;;;;;1.50;1.40;;;23.30;26.50;;;;;;4961483;28;20204;-46
2021/03/31 04:54:43;;;;;;;1.53;1.37;;;23.30;26.50;;;;;;4973954;28;20702;-48
2021/03/31 04:57:09;;;;;;;2.67;1.40;;;23.30;26.50;;;;;;4972738;28;20208;-47
2021/03/31 04:59:35;;;;;;;2.60;1.40;;;23.30;26.50;;;;;;4974375;28;20212;-48
2021/03/31 05:02:01;;;;;;;3.30;1.63;;;23.30;26.50;;;;;;4970556;28;20220;-47
2021/03/31 05:04:27;;;;;;;2.13;1.40;;;23.30;26.40;;;;;;4973318;28;20211;-52
2021/03/31 05:06:53;;;;;;;1.60;1.50;;;23.30;26.50;;;;;;4972204;28;20204;-49
2021/03/31 05:09:19;;;;;;;2.03;1.50;;;23.30;26.50;;;;;;4972400;28;20201;-45
2021/03/31 05:11:45;;;;;;;3.33;1.50;;;23.30;26.50;;;;;;4972162;28;20219;-45
2021/03/31 05:14:11;;;;;;;2.25;1.50;;;23.30;26.40;;;;;;4972197;28;20201;-45
2021/03/31 05:16:37;;;;;;;1.77;1.30;;;23.30;26.50;;;;;;4971784;28;20209;-47
2021/03/31 05:19:03;;;;;;;3.75;1.65;;;23.30;26.40;;;;;;4973492;28;20217;-45
2021/03/31 05:21:29;;;;;;;2.33;1.60;;;23.30;26.50;;;;;;4972705;28;20231;-49
2021/03/31 05:23:55;;;;;;;2.75;1.33;;;23.30;26.50;;;;;;4972420;28;20211;-48
2021/03/31 05:26:21;;;;;;;1.73;1.37;;;23.30;26.50;;;;;;4971969;28;20216;-48
2021/03/31 05:28:47;;;;;;;1.83;1.30;;;23.30;26.40;;;;;;4973520;28;20231;-49
2021/03/31 05:31:13;;;;;;;2.10;1.70;;;23.30;26.40;;;;;;4972393;28;20204;-47
2021/03/31 05:33:39;;;;;;;2.40;1.20;;;23.30;26.50;;;;;;4972283;28;20219;-51
2021/03/31 05:36:05;;;;;;;2.53;1.43;;;23.30;26.60;;;;;;4965870;28;20220;-52
2021/03/31 05:38:31;;;;;;;1.50;1.40;;;23.30;26.90;;;;;;4969908;28;20562;-49
2021/03/31 05:40:57;;;;;;;4.00;1.70;;;23.30;27.10;;;;;;4974958;28;20209;-45
2021/03/31 05:43:23;;;;;;;4.10;1.97;;;23.40;28.30;;;;;;4971460;28;20232;-56
2021/03/31 05:45:49;;;;;;;4.27;1.57;;;23.40;28.30;;;;;;4972415;28;20684;-48
2021/03/31 05:48:15;;;;;;;2.27;1.57;;;23.50;28.40;;;;;;4970993;28;20248;-48
2021/03/31 05:50:41;;;;;;;3.83;1.83;;;23.50;27.80;;;;;;4970917;28;20553;-53
2021/03/31 05:53:07;;;;;;;2.57;1.70;;;23.40;27.20;;;;;;4971193;28;20209;-48
2021/03/31 05:55:33;;;;;;;4.30;1.67;;;23.40;27.50;;;;;;4960904;28;20665;-49
2021/03/31 05:57:59;;;;;;;3.65;1.70;;;23.40;29.30;;;;;;4971444;28;20284;-53
2021/03/31 06:00:25;;;;;;;6.13;2.15;;;23.40;28.00;;;;;;4972622;28;20204;-52
2021/03/31 06:02:51;;;;;;;5.03;1.80;;;23.40;27.70;;;;;;4971992;28;20235;-45
2021/03/31 06:05:17;;;;;;;4.67;1.70;;;23.40;27.60;;;;;;4972806;28;20201;-45
2021/03/31 06:07:43;;;;;;;4.27;2.10;;;23.40;28.30;;;;;;4970213;28;20225;-46
2021/03/31 06:10:09;;;;;;;6.00;2.20;;;23.40;28.50;;;;;;4971208;28;20259;-46
2021/03/31 06:12:36;;;;;;;6.25;2.10;;;23.40;28.30;;;;;;4970800;28;20620;-47
2021/03/31 06:15:02;;;;;;;5.47;2.00;;;23.40;28.30;;;;;;4971770;28;20224;-46
2021/03/31 06:17:28;;;;;;;5.90;2.30;;;23.40;28.30;;;;;;4969394;28;20231;-44
2021/03/31 06:19:54;;;;;;;6.50;2.60;;;23.40;28.30;;;;;;4972056;28;20248;-48
2021/03/31 06:22:26;;;;;;;8.43;3.60;;;23.40;30.40;;;;;;4971987;28;20232;-46
2021/03/31 06:24:52;;;;;;;8.57;3.07;;;22.70;25.90;;;;;;4970391;28;20599;-49
2021/03/31 06:27:18;;;;;;;9.07;2.88;;;22.40;28.60;;;;;;4972046;28;20323;-47
2021/03/31 06:30:01;;;;;;;10.40;3.43;;;22.70;27.80;;;;;;4972121;28;20207;-50
2021/03/31 06:32:27;;;;;;;7.67;3.17;;;23.00;29.20;;;;;;4968013;28;20215;-51
2021/03/31 06:34:53;;;;;;;8.60;2.60;;;23.20;29.80;;;;;;4965241;28;20220;-53
2021/03/31 06:37:19;;;;;;;6.80;3.03;;;23.30;29.50;;;;;;4969849;28;20598;-48
2021/03/31 06:39:45;;;;;;;5.93;2.40;;;23.40;30.00;;;;;;4971278;28;20212;-49
2021/03/31 06:42:13;;;;;;;7.93;2.77;;;23.50;31.00;;;;;;4971089;28;20224;-49
2021/03/31 06:44:46;;;;;;;6.03;2.70;;;23.60;30.90;;;;;;4971176;28;20211;-49
2021/03/31 06:47:18;;;;;;;5.07;2.33;;;23.70;30.50;;;;;;4963928;28;20853;-47
2021/03/31 06:49:44;;;;;;;4.57;1.90;;;23.70;30.20;;;;;;4965166;28;20203;-47
2021/03/31 06:52:10;;;;;;;6.30;2.50;;;23.80;31.30;;;;;;4968419;28;20201;-56
2021/03/31 06:54:36;;;;;;;5.00;2.17;;;23.80;31.30;;;;;;4920558;28;20641;-53
2021/03/31 06:57:02;;;;;;;6.00;2.55;;;23.80;31.50;;;;;;4930559;28;20252;-49
2021/03/31 06:59:28;;;;;;;8.98;2.25;;;23.70;30.90;;;;;;4959531;28;20205;-47
2021/03/31 07:01:54;;;;;;;3.70;1.90;;;23.70;31.90;;;;;;4969985;28;20250;-51
2021/03/31 07:04:20;;;;;;;4.07;1.92;;;23.70;31.40;;;;;;4968694;28;20205;-51
2021/03/31 07:06:46;;;;;;;3.33;2.20;;;23.60;30.30;;;;;;4967286;28;20732;-54
2021/03/31 07:09:12;;;;;;;6.03;2.43;;;23.70;31.40;;;;;;4970417;28;20329;-51
2021/03/31 07:11:39;;;;;;;4.82;2.35;;;23.70;31.60;;;;;;4971036;28;20216;-50
2021/03/31 07:14:05;;;;;;;3.90;1.98;;;23.70;31.80;;;;;;4970706;28;20354;-52
2021/03/31 07:16:31;;;;;;;7.38;2.67;;;23.70;30.50;;;;;;4969288;28;20259;-49
2021/03/31 07:18:57;;;;;;;3.83;2.20;;;23.60;30.80;;;;;;4969724;28;20527;-48
2021/03/31 07:21:23;;;;;;;4.47;2.25;;;23.40;29.60;;;;;;4960726;28;20205;-47
2021/03/31 07:23:49;;;;;;;4.68;2.08;;;23.50;31.20;;;;;;4971744;28;20212;-43
2021/03/31 07:26:15;;;;;;;5.75;2.42;;;23.60;31.00;;;;;;4973795;28;20370;-45
2021/03/31 07:28:41;;;;;;;4.65;1.98;;;23.60;31.00;;;;;;4969627;28;20216;-48
2021/03/31 07:31:07;;;;;;;3.67;1.55;;;23.70;30.80;;;;;;4970467;28;20228;-48
2021/03/31 07:33:33;;;;;;;5.47;1.95;;;23.70;31.20;;;;;;4975115;28;20205;-50
2021/03/31 07:35:59;;;;;;;4.50;2.33;;;23.70;30.90;;;;;;4974237;28;20231;-46
2021/03/31 07:38:25;;;;;;;5.32;2.00;;;23.50;30.00;;;;;;4974170;28;20208;-45
2021/03/31 07:40:51;;;;;;;5.57;2.20;;;23.50;29.80;;;;;;4972148;28;20212;-49
2021/03/31 07:43:18;;;;;;;5.70;1.98;;;23.50;30.30;;;;;;4955707;28;20747;-53
2021/03/31 07:45:44;;;;;;;4.53;1.97;;;23.60;29.20;;;;;;4969323;28;20396;-53
2021/03/31 07:48:10;;;;;;;4.45;2.05;;;23.60;29.70;;;;;;4974272;28;20217;-48
2021/03/31 07:50:36;;;;;;;5.30;1.63;;;23.60;30.10;;;;;;4974541;28;20262;-46
2021/03/31 07:53:02;;;;;;;3.50;1.30;;;23.60;29.80;;;;;;4973877;28;20200;-52
2021/03/31 07:55:28;;;;;;;3.07;2.00;;;23.60;30.20;;;;;;4974617;28;20200;-57
2021/03/31 07:57:54;;;;;;;2.53;1.48;;;23.60;30.00;;;;;;4975522;28;20235;-46
2021/03/31 08:00:20;;;;;;;4.53;2.15;;;23.60;29.90;;;;;;4974055;28;20553;-56
2021/03/31 08:02:46;;;;;;;5.68;2.03;;;23.60;29.10;;;;;;4971883;28;20232;-51
2021/03/31 08:05:12;;;;;;;4.93;1.95;;;23.60;28.20;;;;;;4957134;28;20208;-60
2021/03/31 08:07:38;;;;;;;3.85;2.08;;;23.50;27.50;;;;;;4968664;28;20235;-58
2021/03/31 08:10:04;;;;;;;4.63;2.40;;;23.50;27.30;;;;;;4975303;28;20212;-58
2021/03/31 08:12:31;;;;;;;6.38;2.15;;;23.50;25.20;;;;;;4974864;28;20263;-53
2021/03/31 08:14:57;;;;;;;6.80;2.10;;;23.40;26.00;;;;;;4966616;28;20211;-51
2021/03/31 08:17:23;;;;;;;6.55;2.50;;;23.40;26.00;;;;;;4973952;28;20224;-53
2021/03/31 08:19:49;;;;;;;5.70;2.87;;;23.40;26.00;;;;;;4974437;28;20208;-50
2021/03/31 08:22:15;;;;;;;3.25;2.20;;;23.40;25.80;;;;;;4974632;28;20228;-53
2021/03/31 08:24:41;;;;;;;5.53;2.70;;;23.40;25.20;;;;;;4973896;28;20215;-54
2021/03/31 08:27:07;;;;;;;5.82;2.75;;;23.30;24.90;;;;;;4970831;28;20232;-49
2021/03/31 08:29:33;;;;;;;7.28;2.70;;;23.40;24.70;;;;;;4956630;28;20279;-46
2021/03/31 08:32:00;;;;;;;6.18;2.35;;;23.30;24.30;;;;;;4962367;28;20208;-46
2021/03/31 08:34:27;;;;;;;5.40;2.25;;;23.30;24.40;;;;;;4974353;28;20552;-46
2021/03/31 08:36:53;;;;;;;3.88;2.45;;;23.30;24.30;;;;;;4973781;28;20224;-46
2021/03/31 08:39:19;;;;;;;6.53;2.40;;;23.30;24.10;;;;;;4974394;28;20279;-50
2021/03/31 08:41:45;;;;;;;5.35;2.35;;;23.30;24.10;;;;;;4983296;28;20219;-45
2021/03/31 08:44:11;;;;;;;5.37;2.47;;;23.30;23.90;;;;;;4979988;28;20215;-47
2021/03/31 08:46:37;;;;;;;4.32;2.30;;;23.30;23.80;;;;;;4965408;28;20320;-44
2021/03/31 08:49:03;;;;;;;3.78;2.05;;;23.40;24.00;;;;;;4973935;28;20219;-44
2021/03/31 08:51:29;;;;;;;4.03;2.30;;;23.40;24.00;;;;;;4973927;28;20200;-47
2021/03/31 08:53:55;;;;;;;5.37;3.10;;;23.40;24.10;;;;;;4971735;28;20542;-47
2021/03/31 08:56:21;;;;;;;4.65;2.05;;;23.30;23.70;;;;;;4960519;28;20224;-44
2021/03/31 08:58:47;;;;;;;4.20;1.98;;;23.30;24.30;;;;;;4973810;28;20240;-43
2021/03/31 09:01:14;;;;;;;3.75;1.83;;;23.40;24.40;;;;;;4973872;28;20224;-46
2021/03/31 09:03:40;;;;;;;4.70;2.58;;;23.40;24.70;;;;;;4974307;28;20232;-45
2021/03/31 09:06:06;;;;;;;4.65;2.17;;;23.40;25.00;;;;;;4973861;28;20287;-44
2021/03/31 09:08:32;;;;;;;5.27;1.90;;;23.40;25.10;;;;;;4973716;28;20728;-44
2021/03/31 09:10:58;;;;;;;1.87;1.60;;;23.40;25.40;;;;;;4968431;28;20205;-43
2021/03/31 09:13:24;;;;;;;4.90;2.15;;;23.40;25.50;;;;;;4973338;28;20656;-47
2021/03/31 09:15:50;;;;;;;7.67;2.80;;;23.40;25.60;;;;;;4969659;28;20223;-46
2021/03/31 09:18:16;;;;;;;6.32;2.58;;;23.50;26.10;;;;;;4971720;28;20752;-45
2021/03/31 09:20:42;;;;;;;7.13;3.05;;;23.50;25.90;;;;;;4961139;28;20216;-47
2021/03/31 09:23:08;;;;;;;5.67;2.73;;;23.50;25.70;;;;;;4956912;28;20236;-49
2021/03/31 09:25:34;;;;;;;9.70;2.87;;;23.50;25.90;;;;;;4970083;28;20728;-58
2021/03/31 09:28:00;;;;;;;8.95;3.08;;;23.40;25.30;;;;;;4972177;28;20196;-49
2021/03/31 09:30:26;;;;;;;5.55;2.60;;;23.40;25.50;;;;;;4972101;28;20570;-53
2021/03/31 09:32:54;;;;;;;5.43;2.65;;;23.40;25.60;;;;;;4971732;28;20208;-48
2021/03/31 09:38:04;;;;;;;4.63;2.60;;;23.40;25.40;;;;;;4966365;28;20196;-48
2021/03/31 09:40:31;;;;;;;6.05;2.53;;;23.40;25.10;;;;;;4971734;28;20658;-52
2021/03/31 09:42:57;;;;;;;6.18;2.65;;;23.40;24.60;;;;;;4971637;28;20724;-52
2021/03/31 09:45:23;;;;;;;8.87;2.80;;;23.40;24.40;;;;;;4956715;28;20223;-50
2021/03/31 09:47:49;;;;;;;4.28;2.42;;;23.40;24.40;;;;;;4967498;28;20259;-51
2021/03/31 09:50:15;;;;;;;5.20;2.10;;;23.40;24.40;;;;;;4972005;28;20205;-48
2021/03/31 09:52:41;;;;;;;5.23;2.30;;;23.30;24.30;;;;;;4970148;28;20220;-50
2021/03/31 09:55:07;;;;;;;3.85;2.22;;;23.30;24.90;;;;;;4968689;28;20676;-52
2021/03/31 09:57:33;;;;;;;4.87;2.20;;;23.30;24.10;;;;;;4965669;28;20211;-52
2021/03/31 09:59:59;;;;;;;4.37;1.93;;;23.30;24.00;;;;;;4970554;28;20212;-51
2021/03/31 10:02:24;;;;;;;3.70;2.40;;;23.30;23.90;;;;;;4972678;28;20228;-49
2021/03/31 10:04:51;;;;;;;5.00;2.17;;;23.30;23.90;;;;;;4970868;28;20657;-49
2021/03/31 10:07:18;;;;;;;5.10;2.55;;;23.30;23.80;;;;;;4970112;28;20205;-51
2021/03/31 10:09:44;;;;;;;5.87;2.57;;;23.30;23.70;;;;;;4971978;28;20208;-51
2021/03/31 10:12:10;;;;;;;5.80;2.35;;;23.30;23.60;;;;;;4972522;28;20275;-49
2021/03/31 10:14:36;;;;;;;3.30;2.30;;;23.30;23.60;;;;;;4971303;28;20204;-51
2021/03/31 10:17:02;;;;;;;4.53;2.47;;;23.30;23.60;;;;;;4967853;28;20224;-48
2021/03/31 10:19:28;;;;;;;5.30;2.47;;;23.30;23.20;;;;;;4972141;28;20208;-49
2021/03/31 10:21:54;;;;;;;5.10;2.30;;;23.30;23.50;;;;;;4971204;28;21020;-54
2021/03/31 10:24:19;;;;;;;3.47;2.30;;;23.40;23.60;;;;;;4971128;28;20207;-57
2021/03/31 10:26:45;;;;;;;6.33;2.20;;;23.40;23.40;;;;;;4970664;28;20720;-52
2021/03/31 10:29:11;;;;;;;5.57;2.70;;;23.40;23.90;;;;;;4972329;28;20204;-49
2021/03/31 10:31:39;;;;;;;6.97;2.30;;;23.40;23.80;;;;;;4969014;28;20204;-56
2021/03/31 10:34:05;;;;;;;4.50;2.15;;;23.50;24.20;;;;;;4971122;28;20201;-60
2021/03/31 10:36:31;;;;;;;5.50;2.30;;;23.40;24.30;;;;;;4966068;28;20278;-56
2021/03/31 10:39:07;;;;;;;5.07;2.33;;;23.40;24.10;;;;;;4971759;28;20216;-59
2021/03/31 10:41:48;;;;;;;4.20;2.35;;;23.30;23.70;;;;;;4966158;28;20206;-57
2021/03/31 10:47:15;;;;;;;4.30;2.20;;;23.30;23.60;;;;;;4969948;28;20243;-51
2021/03/31 10:49:44;;;;;;;3.95;2.60;;;23.30;23.60;;;;;;4958355;28;20281;-56
2021/03/31 10:52:15;;;;;;;5.30;2.50;;;23.40;23.90;;;;;;4958731;28;20201;-49
2021/03/31 10:54:41;;;;;;;3.63;2.63;;;23.40;23.80;;;;;;4968864;28;20287;-55
2021/03/31 10:57:08;;;;;;;3.40;2.33;;;23.40;23.60;;;;;;4970346;28;20230;-51
2021/03/31 10:59:34;;;;;;;5.10;2.40;;;23.40;23.90;;;;;;4968520;28;20214;-49
2021/03/31 11:02:01;;;;;;;2.90;1.97;;;23.40;24.00;;;;;;4969243;28;20636;-53
2021/03/31 11:04:27;;;;;;;4.43;2.30;;;23.40;23.90;;;;;;4971744;28;20673;-46
2021/03/31 11:06:53;;;;;;;6.53;2.17;;;23.40;24.40;;;;;;4968775;28;20204;-50
2021/03/31 11:09:19;;;;;;;6.47;2.25;;;23.40;24.30;;;;;;4986036;28;20727;-55
2021/03/31 11:11:45;;;;;;;3.58;2.40;;;23.50;24.40;;;;;;4968299;28;20209;-51
2021/03/31 11:14:12;;;;;;;3.85;1.95;;;23.50;24.50;;;;;;4970116;28;20242;-52
2021/03/31 11:16:46;;;;;;;2.33;1.90;;;23.50;24.30;;;;;;4969235;28;20224;-49
2021/03/31 11:19:24;;;;;;;3.58;2.35;;;23.60;24.50;;;;;;4958475;28;20622;-56
2021/03/31 11:27:20;;;;;;;3.42;1.90;;;23.50;24.50;;;;;;4965852;28;20684;-50
2021/03/31 11:29:46;;;;;;;3.28;1.73;;;23.50;24.50;;;;;;4972099;28;20204;-52
2021/03/31 11:32:12;;;;;;;5.18;2.20;;;23.50;24.60;;;;;;4970549;28;20200;-53
2021/03/31 11:34:38;;;;;;;2.57;1.77;;;23.50;25.00;;;;;;4971049;28;20279;-53
2021/03/31 11:37:04;;;;;;;2.63;1.85;;;23.50;25.30;;;;;;4970692;28;20624;-51
2021/03/31 11:39:30;;;;;;;4.15;2.05;;;23.50;24.90;;;;;;4970960;28;20208;-56
2021/03/31 11:41:56;;;;;;;8.77;2.13;;;23.50;24.50;;;;;;4970463;28;20766;-57
2021/03/31 11:44:22;;;;;;;3.95;2.00;;;23.50;24.90;;;;;;4982676;28;20196;-51
2021/03/31 11:46:48;;;;;;;5.40;2.53;;;23.50;25.20;;;;;;4966901;28;20215;-51
2021/03/31 11:49:14;;;;;;;3.25;2.10;;;23.50;24.80;;;;;;4969181;28;20599;-56
2021/03/31 11:51:40;;;;;;;3.55;2.20;;;23.50;25.40;;;;;;4971234;28;20196;-52
2021/03/31 11:54:08;;;;;;;2.73;2.07;;;23.50;25.30;;;;;;4971214;28;20697;-57
2021/03/31 11:56:34;;;;;;;4.80;1.95;;;23.50;25.20;;;;;;4959309;28;20205;-52
2021/03/31 11:59:00;;;;;;;3.83;2.13;;;23.50;25.50;;;;;;4962700;28;20304;-54
2021/03/31 12:01:26;;;;;;;2.33;2.10;;;23.50;25.20;;;;;;4971268;28;20204;-52
2021/03/31 12:03:52;;;;;;;3.37;2.00;;;23.50;25.10;;;;;;4963112;28;20549;-54
2021/03/31 12:06:18;;;;;;;5.43;2.25;;;23.50;24.70;;;;;;4970748;28;20217;-53
2021/03/31 12:08:48;;;;;;;4.60;2.80;;;23.50;24.90;;;;;;4970532;28;20209;-49
2021/03/31 12:11:14;;;;;;;3.75;1.98;;;23.50;25.00;;;;;;4971616;28;20212;-53
2021/03/31 12:13:40;;;;;;;3.38;2.00;;;23.50;25.10;;;;;;4974972;28;20219;-58
2021/03/31 12:16:06;;;;;;;4.38;2.53;;;23.50;24.60;;;;;;4966889;28;20257;-59
2021/03/31 12:18:32;;;;;;;2.03;1.90;;;23.50;24.60;;;;;;4971956;28;20213;-53
2021/03/31 12:20:58;;;;;;;4.28;2.75;;;23.50;25.00;;;;;;4968190;28;20261;-51
2021/03/31 12:23:24;;;;;;;5.28;2.55;;;23.50;24.50;;;;;;4973605;28;20228;-55
2021/03/31 12:25:49;;;;;;;3.22;2.65;;;23.40;24.40;;;;;;4972606;28;20372;-58
2021/03/31 12:28:16;;;;;;;4.38;2.65;;;23.40;24.40;;;;;;4964049;28;20203;-50
2021/03/31 12:30:42;;;;;;;3.90;2.55;;;23.40;24.10;;;;;;4961801;28;20197;-53
2021/03/31 12:33:08;;;;;;;3.13;2.17;;;23.40;24.00;;;;;;4971540;28;20204;-56
2021/03/31 12:35:34;;;;;;;3.55;2.45;;;23.40;24.00;;;;;;4962388;28;20727;-57
2021/03/31 12:38:00;;;;;;;3.95;2.58;;;23.40;24.40;;;;;;4973855;28;20297;-57
2021/03/31 12:40:25;;;;;;;4.90;2.80;;;23.40;24.30;;;;;;4969923;28;20204;-53
2021/03/31 12:42:51;;;;;;;4.85;2.40;;;23.40;24.40;;;;;;4974172;28;20557;-50
2021/03/31 12:45:17;;;;;;;6.70;2.80;;;23.40;24.30;;;;;;4972693;28;20271;-55
2021/03/31 12:47:44;;;;;;;4.10;2.55;;;23.40;24.10;;;;;;4968752;28;20204;-54
2021/03/31 12:50:12;;;;;;;4.13;2.40;;;23.40;24.10;;;;;;4977738;28;20200;-52
2021/03/31 12:52:42;;;;;;;2.90;2.10;;;23.40;24.00;;;;;;4971799;28;20252;-50